Time;durP1;ratioP1;P1;durP2;ratioP2;P2;SDS_P1;SDS_P2;PMS_P1;PMS_P2;Temp;Humidity;BMP_temperature;BMP_pressure;BME280_temperature;BME280_humidity;BME280_pressure;Samples;Min_cycle;Max_cycle;Signal;HPM_P1;HPM_P2
2023/03/18 00:00:27;;;;;;;34.40;21.00;;;;;;;1.97;68.45;99157.98;109716;1250;59969;-72
2023/03/18 00:03:14;;;;;;;35.00;22.90;;;;;;;1.97;68.47;99152.90;109634;1250;68537;-72
2023/03/18 00:05:41;;;;;;;39.50;21.40;;;;;;;1.97;68.63;99153.23;109620;1250;60095;-72
2023/03/18 00:08:08;;;;;;;35.90;22.10;;;;;;;1.98;68.67;99154.96;109607;1250;64826;-72
2023/03/18 00:10:35;;;;;;;32.70;21.20;;;;;;;1.98;68.65;99159.17;109593;1250;60043;-72
2023/03/18 00:13:03;;;;;;;33.00;20.90;;;;;;;1.98;68.76;99157.77;109658;1250;59922;-72
2023/03/18 00:15:30;;;;;;;36.80;21.60;;;;;;;1.98;68.86;99162.69;109625;1250;66797;-72
2023/03/18 00:17:58;;;;;;;30.50;19.80;;;;;;;1.99;68.93;99167.20;109451;1250;59856;-73
2023/03/18 00:20:37;;;;;;;35.10;21.70;;;;;;;1.98;68.92;99164.58;109646;1250;64165;-73
2023/03/18 00:23:07;;;;;;;35.80;20.30;;;;;;;1.97;69.05;99161.98;109602;1250;59749;-73
2023/03/18 00:25:35;;;;;;;33.00;20.70;;;;;;;1.96;69.11;99163.24;109543;1250;60076;-72
2023/03/18 00:28:04;;;;;;;34.30;21.90;;;;;;;1.95;69.24;99161.88;109628;1250;67887;-73
2023/03/18 00:30:31;;;;;;;36.50;21.10;;;;;;;1.94;69.33;99164.21;109424;1250;61202;-73
2023/03/18 00:32:58;;;;;;;38.20;22.10;;;;;;;1.91;69.38;99163.75;109625;1250;64764;-73
2023/03/18 00:35:26;;;;;;;41.20;22.20;;;;;;;1.88;69.48;99159.46;109665;1250;59773;-73
2023/03/18 00:37:54;;;;;;;35.10;22.20;;;;;;;1.86;69.54;99155.49;109581;1250;59885;-73
2023/03/18 00:40:27;;;;;;;34.60;22.20;;;;;;;1.84;69.66;99156.10;109632;1250;66885;-73
2023/03/18 00:43:00;;;;;;;36.90;22.00;;;;;;;1.81;69.71;99153.88;109631;1250;61245;-73
2023/03/18 00:45:27;;;;;;;36.90;21.90;;;;;;;1.79;69.84;99149.93;109657;1250;65113;-71
2023/03/18 00:47:54;;;;;;;37.10;23.00;;;;;;;1.76;69.79;99143.88;109629;1250;60004;-72
2023/03/18 00:50:20;;;;;;;37.80;22.90;;;;;;;1.74;69.82;99140.07;109659;1250;59836;-72
2023/03/18 00:52:47;;;;;;;35.60;22.50;;;;;;;1.75;69.92;99141.11;109434;1250;66719;-72
2023/03/18 00:55:14;;;;;;;32.10;20.60;;;;;;;1.76;70.01;99135.98;109674;1250;61379;-72
2023/03/18 00:57:41;;;;;;;34.80;21.80;;;;;;;1.77;70.10;99130.19;109650;1250;64680;-72
2023/03/18 01:00:08;;;;;;;34.40;21.50;;;;;;;1.76;70.20;99123.91;109650;1250;60067;-72
2023/03/18 01:02:35;;;;;;;29.90;20.10;;;;;;;1.74;70.41;99122.02;109620;1250;60266;-72
2023/03/18 01:05:04;;;;;;;32.50;20.90;;;;;;;1.73;70.58;99118.89;109616;1250;66939;-72
2023/03/18 01:07:30;;;;;;;31.30;20.00;;;;;;;1.71;70.76;99122.12;109461;1250;60711;-72
2023/03/18 01:09:57;;;;;;;33.70;20.50;;;;;;;1.67;70.96;99121.52;109644;1250;64663;-72
2023/03/18 01:12:24;;;;;;;31.10;20.90;;;;;;;1.65;71.07;99118.10;109624;1250;59874;-72
2023/03/18 01:14:51;;;;;;;32.10;20.70;;;;;;;1.63;71.28;99112.55;109655;1250;60025;-72
2023/03/18 01:17:17;;;;;;;31.00;20.90;;;;;;;1.61;71.39;99109.09;109675;1250;67559;-72
2023/03/18 01:19:44;;;;;;;30.60;18.80;;;;;;;1.59;71.65;99105.48;109635;1250;60814;-72
2023/03/18 01:22:11;;;;;;;29.80;19.80;;;;;;;1.57;71.85;99103.08;109643;1250;63709;-73
2023/03/18 01:24:38;;;;;;;31.10;20.10;;;;;;;1.54;71.99;99100.91;109618;1250;59767;-72
2023/03/18 01:27:05;;;;;;;32.30;20.10;;;;;;;1.49;72.22;99100.86;109389;1250;60243;-72
2023/03/18 01:29:32;;;;;;;29.60;19.50;;;;;;;1.44;72.32;99103.45;109652;1250;67784;-72
2023/03/18 01:31:59;;;;;;;29.70;21.00;;;;;;;1.40;72.50;99105.34;109573;1250;59992;-72
2023/03/18 01:34:25;;;;;;;32.00;19.30;;;;;;;1.33;72.64;99098.84;109650;1250;63792;-72
2023/03/18 01:36:52;;;;;;;28.10;17.80;;;;;;;1.29;72.83;99097.91;109619;1249;59786;-72
2023/03/18 01:39:19;;;;;;;28.00;17.90;;;;;;;1.26;72.98;99104.48;109660;1250;60127;-73
2023/03/18 01:41:47;;;;;;;31.70;18.00;;;;;;;1.22;73.14;99101.59;109574;1250;66690;-72
2023/03/18 01:44:21;;;;;;;26.80;17.90;;;;;;;1.20;73.27;99104.11;109674;1250;60737;-72
2023/03/18 01:46:49;;;;;;;30.00;17.80;;;;;;;1.17;73.37;99101.73;109589;1250;64990;-72
2023/03/18 01:49:26;;;;;;;28.70;17.50;;;;;;;1.16;73.41;99101.25;109567;1250;59978;-72
2023/03/18 01:52:25;;;;;;;26.50;16.40;;;;;;;1.14;73.43;99102.70;109632;1250;59834;-72
2023/03/18 01:54:59;;;;;;;30.60;18.80;;;;;;;1.13;73.46;99098.34;109596;1250;67461;-72
2023/03/18 01:57:27;;;;;;;25.20;16.00;;;;;;;1.12;73.54;99097.16;109712;1250;60777;-72
2023/03/18 01:59:54;;;;;;;27.80;16.30;;;;;;;1.11;73.77;99095.95;109511;1250;63886;-72
2023/03/18 02:02:22;;;;;;;30.90;17.00;;;;;;;1.13;73.76;99090.67;109597;1250;59789;-72
2023/03/18 02:04:52;;;;;;;23.40;15.30;;;;;;;1.13;73.81;99087.88;109674;1250;59929;-72
2023/03/18 02:07:22;;;;;;;;;;;;;;;1.11;73.85;99084.77;109460;1250;66501;-72
2023/03/18 02:09:50;;;;;;;23.60;15.20;;;;;;;1.10;74.07;99088.81;109637;1250;60700;-73
2023/03/18 02:12:22;;;;;;;26.50;17.00;;;;;;;1.08;74.20;99090.09;109596;1250;64743;-72
2023/03/18 02:14:51;;;;;;;28.90;17.10;;;;;;;1.07;74.26;99088.18;109342;1250;59829;-73
2023/03/18 02:17:25;;;;;;;27.50;17.30;;;;;;;1.06;74.32;99088.39;109561;1250;59914;-72
2023/03/18 02:20:19;;;;;;;26.70;16.30;;;;;;;1.01;74.51;99092.37;109622;1250;67581;-72
2023/03/18 02:22:59;;;;;;;26.00;16.30;;;;;;;0.96;74.56;99095.50;109632;1250;60776;-74
2023/03/18 02:25:43;;;;;;;31.20;17.90;;;;;;;0.89;74.74;99091.82;109673;1250;63781;-72
2023/03/18 02:28:16;;;;;;;30.10;19.30;;;;;;;0.85;74.93;99088.77;109660;1250;59905;-72
2023/03/18 02:30:47;;;;;;;26.40;16.90;;;;;;;0.83;75.04;99090.77;109697;1250;59831;-72
2023/03/18 02:33:16;;;;;;;32.30;18.20;;;;;;;0.80;75.21;99091.37;109647;1250;67505;-72
2023/03/18 02:35:45;;;;;;;24.90;17.20;;;;;;;0.78;75.30;99089.66;109666;1253;61101;-72
2023/03/18 02:38:11;;;;;;;25.00;16.70;;;;;;;0.76;75.43;99087.98;109573;1250;64744;-72
2023/03/18 02:40:41;;;;;;;27.40;17.60;;;;;;;0.74;75.68;99083.30;109629;1250;59879;-72
2023/03/18 02:43:13;;;;;;;26.70;16.90;;;;;;;0.72;75.88;99082.48;109443;1250;59840;-72
2023/03/18 02:45:53;;;;;;;26.60;17.60;;;;;;;0.68;75.99;99077.17;109621;1250;66493;-72
2023/03/18 02:48:22;;;;;;;;;;;;;;;0.64;76.16;99076.02;109696;1250;61507;-72
2023/03/18 02:50:49;;;;;;;24.10;17.20;;;;;;;0.60;76.30;99075.42;109618;1250;65050;-72
2023/03/18 02:53:15;;;;;;;33.20;21.10;;;;;;;0.57;76.36;99074.98;109584;1250;59775;-72
2023/03/18 02:55:42;;;;;;;27.10;18.00;;;;;;;0.52;76.56;99078.77;109673;1250;59858;-72
2023/03/18 02:58:09;;;;;;;30.80;18.50;;;;;;;0.47;76.84;99076.80;109631;1250;67648;-72
2023/03/18 03:00:42;;;;;;;29.00;17.50;;;;;;;0.43;77.14;99079.50;109309;1250;59899;-72
2023/03/18 03:03:08;;;;;;;28.40;18.60;;;;;;;0.40;77.21;99077.84;109598;1250;64127;-73
2023/03/18 03:05:35;;;;;;;24.50;18.20;;;;;;;0.37;77.44;99078.61;109582;1250;59799;-73
2023/03/18 03:08:03;;;;;;;25.40;16.80;;;;;;;0.36;77.70;99079.68;109691;1250;59817;-73
2023/03/18 03:10:29;;;;;;;29.60;18.40;;;;;;;0.34;77.75;99076.94;109439;1250;66479;-73
2023/03/18 03:12:56;;;;;;;31.90;18.70;;;;;;;0.32;77.94;99079.80;109329;1249;60801;-73
2023/03/18 03:15:23;;;;;;;30.00;18.00;;;;;;;0.31;78.07;99080.52;109663;1250;63693;-73
2023/03/18 03:17:50;;;;;;;30.00;19.40;;;;;;;0.28;78.21;99079.00;108895;1250;1002399;-73
2023/03/18 03:20:17;;;;;;;32.90;20.70;;;;;;;0.26;78.45;99081.16;109666;1250;59859;-72
2023/03/18 03:22:44;;;;;;;30.60;20.80;;;;;;;0.24;78.64;99078.23;109636;1250;66534;-72
2023/03/18 03:25:11;;;;;;;32.20;20.90;;;;;;;0.24;78.68;99082.61;109649;1250;60720;-73
2023/03/18 03:27:37;;;;;;;30.60;21.00;;;;;;;0.23;78.97;99086.48;109637;1250;64913;-71
2023/03/18 03:30:08;;;;;;;34.20;20.20;;;;;;;0.22;79.19;99087.37;109605;1250;59810;-73
2023/03/18 03:32:35;;;;;;;32.60;19.40;;;;;;;0.18;79.40;99086.74;109668;1250;59856;-73
2023/03/18 03:35:04;;;;;;;29.10;19.30;;;;;;;0.13;79.58;99086.02;109683;1250;67679;-73
2023/03/18 03:37:30;;;;;;;31.30;19.90;;;;;;;0.11;79.79;99089.02;109635;1250;60190;-71
2023/03/18 03:39:58;;;;;;;39.40;24.20;;;;;;;0.09;80.03;99091.85;109647;1250;64807;-73
2023/03/18 03:42:25;;;;;;;32.50;21.90;;;;;;;0.05;79.96;99087.95;109343;1250;59763;-73
2023/03/18 03:44:52;;;;;;;34.40;22.30;;;;;;;-0.00;79.97;99084.20;109523;1250;59884;-72
2023/03/18 03:47:20;;;;;;;36.10;24.50;;;;;;;-0.05;80.22;99088.16;109678;1250;67528;-73
2023/03/18 03:49:46;;;;;;;33.60;22.40;;;;;;;-0.10;80.49;99092.98;109654;1250;60032;-73
2023/03/18 03:52:13;;;;;;;30.80;22.90;;;;;;;-0.12;80.60;99096.17;109616;1250;62536;-73
2023/03/18 03:54:40;;;;;;;43.10;24.80;;;;;;;-0.11;80.75;99092.66;109622;1250;59943;-72
2023/03/18 03:57:07;;;;;;;35.50;24.00;;;;;;;-0.11;80.75;99094.05;109295;1250;59725;-73
2023/03/18 03:59:34;;;;;;;34.90;22.50;;;;;;;-0.12;80.95;99089.55;109655;1250;66623;-72
2023/03/18 04:02:01;;;;;;;36.70;22.80;;;;;;;-0.13;81.08;99093.76;109666;1250;59760;-73
2023/03/18 04:04:34;;;;;;;31.60;21.80;;;;;;;-0.12;81.22;99095.48;109624;1250;65056;-73
2023/03/18 04:07:02;;;;;;;32.80;20.40;;;;;;;-0.12;81.35;99095.81;108872;1250;1002645;-73
2023/03/18 04:09:29;;;;;;;27.70;18.30;;;;;;;-0.12;81.64;99092.16;109630;1250;59876;-73
2023/03/18 04:11:55;;;;;;;31.90;20.90;;;;;;;-0.12;81.86;99094.77;109623;1253;67472;-71
2023/03/18 04:14:22;;;;;;;32.10;19.50;;;;;;;-0.11;81.97;99095.98;109645;1250;60703;-71
2023/03/18 04:16:48;;;;;;;28.50;19.50;;;;;;;-0.10;82.08;99101.91;109655;1250;63450;-72
2023/03/18 04:19:16;;;;;;;33.20;21.50;;;;;;;-0.12;82.17;99101.08;109577;1250;59835;-71
2023/03/18 04:21:43;;;;;;;38.30;23.60;;;;;;;-0.14;82.36;99101.29;109690;1250;59827;-72
2023/03/18 04:24:09;;;;;;;32.50;23.20;;;;;;;-0.16;82.63;99102.71;109611;1250;65232;-72
2023/03/18 04:26:36;;;;;;;30.30;22.70;;;;;;;-0.17;82.83;99100.31;109289;1250;60733;-71
2023/03/18 04:29:03;;;;;;;35.90;23.90;;;;;;;-0.19;82.92;99100.52;109646;1250;64717;-71
2023/03/18 04:31:30;;;;;;;33.30;22.00;;;;;;;-0.20;83.30;99097.40;109602;1249;59780;-71
2023/03/18 04:33:59;;;;;;;28.40;21.00;;;;;;;-0.21;83.45;99102.32;109675;1250;59779;-71
2023/03/18 04:36:27;;;;;;;33.70;20.90;;;;;;;-0.22;83.46;99103.89;109670;1250;67480;-72
2023/03/18 04:38:54;;;;;;;34.20;22.00;;;;;;;-0.23;83.83;99099.73;109638;1250;60762;-72
2023/03/18 04:41:21;;;;;;;36.20;22.30;;;;;;;-0.23;84.29;99101.30;109647;1250;63696;-72
2023/03/18 04:43:48;;;;;;;30.40;20.30;;;;;;;-0.23;84.35;99102.86;109637;1250;59763;-71
2023/03/18 04:46:15;;;;;;;28.10;20.20;;;;;;;-0.22;84.49;99101.63;109635;1250;59805;-72
2023/03/18 04:48:42;;;;;;;33.60;21.80;;;;;;;-0.23;84.69;99101.83;109631;1250;67525;-72
2023/03/18 04:51:09;;;;;;;28.60;19.60;;;;;;;-0.23;84.87;99106.54;109672;1250;60703;-72
2023/03/18 04:53:36;;;;;;;33.70;22.00;;;;;;;-0.25;84.72;99107.63;109270;1250;63732;-72
2023/03/18 04:56:04;;;;;;;37.50;22.40;;;;;;;-0.27;84.92;99109.06;109630;1250;59728;-73
2023/03/18 04:58:30;;;;;;;32.90;21.50;;;;;;;-0.29;85.25;99107.70;109631;1250;59916;-72
2023/03/18 05:00:57;;;;;;;39.90;23.70;;;;;;;-0.30;85.41;99103.55;109638;1250;66472;-72
2023/03/18 05:03:24;;;;;;;37.60;24.70;;;;;;;-0.30;85.66;99107.91;109620;1250;60691;-73
2023/03/18 05:05:51;;;;;;;37.20;22.90;;;;;;;-0.30;85.87;99106.67;109614;1250;62747;-73
2023/03/18 05:08:17;;;;;;;37.90;23.80;;;;;;;-0.28;86.07;99107.69;109648;1250;59772;-73
2023/03/18 05:10:44;;;;;;;35.40;23.90;;;;;;;-0.24;85.99;99111.45;109663;1250;59846;-72
2023/03/18 05:13:10;;;;;;;34.80;23.30;;;;;;;-0.07;85.87;99107.77;109644;1250;66516;-72
2023/03/18 05:15:37;;;;;;;36.60;25.80;;;;;;;0.19;85.33;99105.09;109543;1250;60012;-72
2023/03/18 05:18:03;;;;;;;38.70;25.60;;;;;;;0.46;84.56;99108.81;109630;1250;64679;-72
2023/03/18 05:20:30;;;;;;;37.20;25.40;;;;;;;0.74;83.80;99113.02;109621;1250;59758;-72
2023/03/18 05:22:57;;;;;;;40.60;24.20;;;;;;;0.91;83.22;99116.95;109642;1250;59927;-72
2023/03/18 05:25:23;;;;;;;37.00;23.10;;;;;;;0.92;83.01;99118.50;109660;1250;67780;-72
2023/03/18 05:27:50;;;;;;;32.20;22.10;;;;;;;0.87;82.88;99119.50;109518;1250;60894;-72
2023/03/18 05:30:17;;;;;;;34.00;22.10;;;;;;;0.82;82.83;99119.63;109637;1250;65037;-72
2023/03/18 05:32:44;;;;;;;32.00;22.30;;;;;;;0.81;82.67;99120.70;109632;1250;59704;-72
2023/03/18 05:35:11;;;;;;;33.10;22.30;;;;;;;0.84;82.63;99120.61;109708;1251;59627;-72
2023/03/18 05:37:38;;;;;;;32.60;21.90;;;;;;;1.06;82.27;99123.40;109571;1250;67967;-72
2023/03/18 05:40:10;;;;;;;33.90;24.20;;;;;;;1.35;81.47;99123.66;109606;1250;60814;-72
2023/03/18 05:42:39;;;;;;;34.20;23.00;;;;;;;1.61;80.83;99118.05;109632;1250;64003;-72
2023/03/18 05:45:06;;;;;;;33.60;23.10;;;;;;;1.70;80.55;99121.80;109650;1250;60058;-72
2023/03/18 05:47:33;;;;;;;32.20;22.70;;;;;;;1.80;80.29;99117.81;109629;1250;59743;-72
2023/03/18 05:50:01;;;;;;;35.60;24.00;;;;;;;2.11;79.52;99119.00;109318;1250;65313;-72
2023/03/18 05:52:28;;;;;;;31.00;21.30;;;;;;;2.42;78.81;99119.98;109688;1250;60227;-72
2023/03/18 05:54:55;;;;;;;26.80;20.30;;;;;;;2.65;77.91;99115.54;109642;1250;63693;-72
2023/03/18 05:57:22;;;;;;;26.60;19.80;;;;;;;2.77;77.55;99111.11;109682;1250;59828;-72
2023/03/18 05:59:48;;;;;;;28.90;19.70;;;;;;;2.95;76.93;99111.04;109674;1250;59820;-72
2023/03/18 06:02:15;;;;;;;31.50;19.80;;;;;;;3.12;76.38;99110.97;109636;1250;66538;-73
2023/03/18 06:04:41;;;;;;;24.80;18.70;;;;;;;3.12;76.09;99113.26;109665;1250;61056;-72
2023/03/18 06:07:08;;;;;;;27.10;18.10;;;;;;;3.08;75.59;99118.30;109659;1250;65078;-72
2023/03/18 06:09:35;;;;;;;28.20;18.30;;;;;;;3.04;75.49;99118.27;109587;1250;59824;-72
2023/03/18 06:12:02;;;;;;;27.70;18.20;;;;;;;3.00;74.87;99119.30;109606;1250;59860;-73
2023/03/18 06:14:30;;;;;;;31.10;18.40;;;;;;;2.95;74.83;99123.48;109336;1250;66798;-73
2023/03/18 06:16:56;;;;;;;29.50;18.00;;;;;;;2.90;74.52;99122.42;109689;1250;59971;-72
2023/03/18 06:19:24;;;;;;;28.50;19.30;;;;;;;2.86;74.36;99126.61;109387;1250;65387;-72
2023/03/18 06:21:51;;;;;;;31.00;20.10;;;;;;;2.85;74.39;99128.57;109602;1250;59792;-73
2023/03/18 06:24:18;;;;;;;28.00;19.50;;;;;;;2.88;74.38;99131.26;109646;1250;59744;-73
2023/03/18 06:26:45;;;;;;;28.20;19.80;;;;;;;2.93;74.43;99136.54;109660;1250;68003;-73
2023/03/18 06:29:11;;;;;;;28.40;20.50;;;;;;;2.96;74.20;99141.54;109674;1250;60802;-73
2023/03/18 06:31:38;;;;;;;31.40;20.10;;;;;;;3.01;74.35;99141.89;109650;1250;63842;-73
2023/03/18 06:34:05;;;;;;;34.80;21.40;;;;;;;3.08;74.32;99140.93;109618;1250;60565;-73
2023/03/18 06:36:32;;;;;;;33.00;21.60;;;;;;;3.14;74.00;99144.44;109665;1250;59836;-73
2023/03/18 06:38:59;;;;;;;31.30;21.90;;;;;;;3.20;73.65;99142.98;109667;1250;67789;-73
2023/03/18 06:41:26;;;;;;;33.00;21.80;;;;;;;3.26;73.33;99144.35;109267;1250;60375;-73
2023/03/18 06:43:53;;;;;;;31.10;20.90;;;;;;;3.34;72.86;99142.69;109633;1250;65288;-73
2023/03/18 06:46:20;;;;;;;29.60;19.80;;;;;;;3.37;72.48;99144.16;109610;1250;59695;-73
2023/03/18 06:48:47;;;;;;;31.90;20.70;;;;;;;3.42;72.45;99144.16;109684;1250;59658;-73
2023/03/18 06:51:14;;;;;;;32.50;20.50;;;;;;;3.54;72.48;99145.84;109682;1250;67759;-73
2023/03/18 06:53:40;;;;;;;32.30;21.80;;;;;;;3.67;72.53;99149.05;109560;1250;61283;-72
2023/03/18 06:56:08;;;;;;;33.60;20.60;;;;;;;3.84;72.33;99155.29;109639;1250;63942;-72
2023/03/18 06:58:36;;;;;;;30.10;20.10;;;;;;;3.95;71.84;99155.21;109643;1250;59941;-72
2023/03/18 07:01:03;;;;;;;30.10;19.60;;;;;;;4.05;71.47;99157.14;109627;1250;59927;-72
2023/03/18 07:03:30;;;;;;;26.40;19.70;;;;;;;4.18;71.23;99160.53;109676;1250;68052;-72
2023/03/18 07:05:56;;;;;;;28.20;19.30;;;;;;;4.29;71.05;99162.20;109644;1250;60701;-72
2023/03/18 07:08:23;;;;;;;34.80;20.80;;;;;;;4.41;70.75;99159.79;109663;1250;63746;-73
2023/03/18 07:10:53;;;;;;;30.40;20.40;;;;;;;4.53;70.62;99160.73;109549;1250;59846;-72
2023/03/18 07:13:20;;;;;;;26.70;19.10;;;;;;;4.61;69.94;99163.23;109494;1251;60129;-72
2023/03/18 07:15:47;;;;;;;29.80;20.60;;;;;;;4.65;69.45;99163.98;109562;1250;66758;-72
2023/03/18 07:18:14;;;;;;;28.70;19.70;;;;;;;4.70;69.19;99166.42;109650;1250;59801;-72
2023/03/18 07:20:40;;;;;;;28.80;20.30;;;;;;;4.77;69.01;99167.36;109616;1250;64067;-72
2023/03/18 07:23:08;;;;;;;27.90;19.80;;;;;;;4.86;68.87;99167.70;109649;1250;59875;-72
2023/03/18 07:25:35;;;;;;;29.00;19.40;;;;;;;4.96;68.56;99169.03;109667;1250;60456;-72
2023/03/18 07:28:02;;;;;;;27.80;18.50;;;;;;;5.05;68.27;99169.55;109652;1250;66865;-72
2023/03/18 07:30:29;;;;;;;29.60;18.90;;;;;;;5.14;68.13;99171.13;109615;1250;60083;-72
2023/03/18 07:32:56;;;;;;;30.10;20.30;;;;;;;5.23;67.79;99168.79;109648;1250;64025;-73
2023/03/18 07:35:23;;;;;;;28.10;19.00;;;;;;;5.32;67.61;99175.98;109631;1250;59775;-72
2023/03/18 07:37:50;;;;;;;27.20;18.30;;;;;;;5.39;67.36;99177.98;109652;1250;59748;-72
2023/03/18 07:40:17;;;;;;;27.90;18.60;;;;;;;5.49;67.01;99179.65;109531;1250;67614;-72
2023/03/18 07:42:43;;;;;;;29.40;19.10;;;;;;;5.61;66.84;99177.56;109626;1250;61153;-73
2023/03/18 07:45:10;;;;;;;27.70;18.70;;;;;;;5.74;66.73;99171.51;109661;1250;65685;-72
2023/03/18 07:47:37;;;;;;;28.00;19.20;;;;;;;5.88;66.32;99172.48;109636;1250;59834;-73
2023/03/18 07:50:04;;;;;;;29.20;19.30;;;;;;;5.97;65.98;99174.38;109646;1250;59905;-73
2023/03/18 07:52:31;;;;;;;29.60;20.30;;;;;;;6.08;65.82;99171.79;109612;1250;67906;-73
2023/03/18 07:54:57;;;;;;;27.00;19.00;;;;;;;6.20;65.43;99170.02;109677;1250;61052;-73
2023/03/18 07:57:24;;;;;;;29.10;20.00;;;;;;;6.32;65.19;99169.23;109620;1250;65284;-73
2023/03/18 07:59:51;;;;;;;24.50;19.00;;;;;;;6.44;64.75;99164.83;109632;1250;59812;-73
2023/03/18 08:02:19;;;;;;;27.00;18.30;;;;;;;6.53;64.45;99165.79;109475;1250;59985;-72
2023/03/18 08:04:46;;;;;;;24.00;19.00;;;;;;;6.61;64.03;99171.60;109669;1250;66746;-72
2023/03/18 08:07:12;;;;;;;25.20;18.90;;;;;;;6.70;63.87;99167.79;109691;1250;60213;-73
2023/03/18 08:09:39;;;;;;;26.00;18.80;;;;;;;6.81;63.71;99167.96;109397;1250;63843;-73
2023/03/18 08:12:07;;;;;;;27.90;20.70;;;;;;;6.94;63.47;99166.83;109582;1250;59844;-72
2023/03/18 08:14:34;;;;;;;25.60;19.50;;;;;;;7.04;63.28;99166.70;109273;1250;59780;-72
2023/03/18 08:17:02;;;;;;;29.00;22.60;;;;;;;7.14;63.06;99163.70;109399;1250;66985;-72
2023/03/18 08:19:29;;;;;;;26.80;19.80;;;;;;;7.26;62.93;99166.83;109647;1254;60207;-72
2023/03/18 08:21:56;;;;;;;30.90;20.00;;;;;;;7.39;62.78;99169.52;109626;1250;63787;-72
2023/03/18 08:24:23;;;;;;;26.00;18.90;;;;;;;7.49;62.49;99167.41;109622;1250;59753;-72
2023/03/18 08:26:50;;;;;;;26.70;20.80;;;;;;;7.59;62.33;99167.56;109627;1250;59934;-73
2023/03/18 08:29:16;;;;;;;26.10;20.10;;;;;;;7.74;61.88;99162.22;109390;1250;67094;-72
2023/03/18 08:31:43;;;;;;;24.70;19.00;;;;;;;7.84;61.42;99156.74;109634;1250;60838;-72
2023/03/18 08:34:10;;;;;;;27.70;20.30;;;;;;;7.94;61.38;99160.61;109605;1250;64774;-72
2023/03/18 08:36:37;;;;;;;27.20;20.20;;;;;;;8.09;61.23;99154.88;109631;1250;59773;-72
2023/03/18 08:39:04;;;;;;;22.70;18.50;;;;;;;8.23;60.98;99153.92;109648;1250;59847;-72
2023/03/18 08:41:32;;;;;;;26.10;18.70;;;;;;;8.33;60.58;99155.50;109656;1250;66729;-72
2023/03/18 08:44:00;;;;;;;26.60;18.40;;;;;;;8.43;60.22;99155.16;109633;1251;60735;-72
2023/03/18 08:46:27;;;;;;;22.90;17.60;;;;;;;8.53;59.95;99151.23;109338;1257;63752;-72
2023/03/18 08:48:54;;;;;;;24.70;17.80;;;;;;;8.66;59.82;99152.11;109656;1250;59773;-73
2023/03/18 08:51:23;;;;;;;22.40;16.30;;;;;;;8.82;59.58;99151.70;109694;1250;59805;-73
2023/03/18 08:53:50;;;;;;;21.30;16.80;;;;;;;9.02;59.27;99150.55;109673;1250;67624;-72
2023/03/18 08:56:17;;;;;;;19.90;16.20;;;;;;;9.17;58.06;99151.98;109467;1251;61363;-72
2023/03/18 08:58:44;;;;;;;18.70;15.60;;;;;;;9.28;57.63;99149.96;109597;1250;63706;-72
2023/03/18 09:01:11;;;;;;;22.60;14.90;;;;;;;9.41;56.89;99143.68;109636;1250;59880;-72
2023/03/18 09:03:38;;;;;;;18.80;13.80;;;;;;;9.53;56.82;99143.48;109612;1250;59728;-72
2023/03/18 09:06:05;;;;;;;15.70;11.30;;;;;;;9.68;56.06;99140.79;109667;1250;67477;-72
2023/03/18 09:08:32;;;;;;;14.70;11.30;;;;;;;9.78;54.62;99141.22;109653;1250;59835;-72
2023/03/18 09:10:59;;;;;;;19.40;13.20;;;;;;;9.85;54.02;99142.02;109598;1250;64862;-72
2023/03/18 09:13:25;;;;;;;15.90;11.80;;;;;;;9.94;53.57;99141.15;109629;1250;59776;-72
2023/03/18 09:15:53;;;;;;;16.10;11.50;;;;;;;10.04;53.25;99140.52;109419;1251;59764;-72
2023/03/18 09:18:21;;;;;;;19.00;12.10;;;;;;;10.12;52.84;99137.91;109306;1250;67722;-72
2023/03/18 09:20:48;;;;;;;16.40;11.50;;;;;;;10.22;52.76;99140.09;109650;1255;61244;-72
2023/03/18 09:23:17;;;;;;;15.90;11.80;;;;;;;10.35;52.18;99139.52;109326;1251;64156;-72
2023/03/18 09:25:47;;;;;;;18.90;13.80;;;;;;;10.47;51.64;99137.86;109599;1250;59834;-72
2023/03/18 09:28:13;;;;;;;18.70;14.40;;;;;;;10.55;51.54;99133.05;109657;1250;59811;-72
2023/03/18 09:30:41;;;;;;;16.40;12.80;;;;;;;10.64;51.12;99132.13;109630;1250;65612;-72
2023/03/18 09:33:10;;;;;;;17.50;13.10;;;;;;;10.75;51.17;99129.30;109630;1251;59801;-72
2023/03/18 09:35:37;;;;;;;17.00;12.60;;;;;;;10.90;51.17;99126.68;109606;1250;65284;-72
2023/03/18 09:38:06;;;;;;;15.00;11.90;;;;;;;11.07;50.83;99123.05;109532;1251;60076;-72
2023/03/18 09:40:37;;;;;;;17.60;13.60;;;;;;;11.18;50.27;99124.27;109603;1251;59831;-72
2023/03/18 09:43:44;;;;;;;15.70;12.90;;;;;;;11.25;50.12;99123.64;109640;1251;66442;-72
2023/03/18 09:46:16;;;;;;;17.60;12.40;;;;;;;11.36;49.53;99126.13;108994;1259;60074;-72
2023/03/18 09:48:58;;;;;;;16.10;12.00;;;;;;;11.41;48.77;99120.73;108994;1259;64879;-72
2023/03/18 09:51:46;;;;;;;15.10;11.70;;;;;;;11.49;48.86;99116.63;108948;1259;60232;-71
2023/03/18 09:54:15;;;;;;;16.60;12.10;;;;;;;11.64;48.60;99116.70;108983;1258;60108;-72
2023/03/18 09:56:44;;;;;;;14.50;11.70;;;;;;;11.75;48.37;99111.13;108958;1259;68006;-72
2023/03/18 09:59:17;;;;;;;14.60;10.90;;;;;;;11.84;47.99;99110.65;108967;1260;60249;-72
2023/03/18 10:01:46;;;;;;;15.60;11.50;;;;;;;11.95;47.88;99109.58;108997;1260;65599;-72
2023/03/18 10:04:20;;;;;;;13.50;10.00;;;;;;;12.05;47.36;99104.91;108990;1258;59781;-72
2023/03/18 10:06:49;;;;;;;12.70;9.60;;;;;;;12.24;47.65;99104.64;109036;1258;59918;-72
2023/03/18 10:09:19;;;;;;;14.70;10.50;;;;;;;12.38;46.60;99100.46;108982;1260;67668;-72
2023/03/18 10:11:50;;;;;;;16.80;10.30;;;;;;;12.38;46.42;99100.42;109011;1260;60607;-72
2023/03/18 10:14:25;;;;;;;12.40;10.00;;;;;;;12.42;45.83;99101.95;108984;1259;63743;-72
2023/03/18 10:17:08;;;;;;;12.30;9.50;;;;;;;12.43;45.53;99095.46;109001;1259;59961;-72
2023/03/18 10:19:36;;;;;;;12.10;9.50;;;;;;;12.46;45.05;99092.35;109019;1259;59810;-72
2023/03/18 10:22:34;;;;;;;13.10;9.30;;;;;;;12.58;45.85;99093.10;108829;1258;66716;-72
2023/03/18 10:25:20;;;;;;;13.10;9.60;;;;;;;12.71;45.37;99091.45;109387;1250;60775;-72
2023/03/18 10:27:56;;;;;;;14.10;9.90;;;;;;;12.75;44.70;99091.34;109313;1251;62828;-72
2023/03/18 10:30:40;;;;;;;9.10;7.90;;;;;;;12.74;44.19;99088.87;109601;1251;59834;-72
2023/03/18 10:33:14;;;;;;;10.90;8.00;;;;;;;12.81;43.74;99084.83;109621;1254;59858;-72
2023/03/18 10:35:51;;;;;;;9.70;7.80;;;;;;;12.84;43.63;99083.72;109623;1251;67644;-72
2023/03/18 10:38:25;;;;;;;9.40;7.00;;;;;;;12.91;43.41;99086.33;109664;1251;61095;-73
2023/03/18 10:40:52;;;;;;;8.10;6.80;;;;;;;12.99;42.35;99081.69;109605;1250;63722;-72
2023/03/18 10:43:27;;;;;;;8.70;6.80;;;;;;;13.00;41.96;99081.77;109598;1251;59783;-72
2023/03/18 10:46:06;;;;;;;10.50;8.50;;;;;;;13.00;41.71;99080.75;109610;1251;59822;-72
2023/03/18 10:48:37;;;;;;;9.10;6.50;;;;;;;13.06;41.80;99082.02;109627;1250;67906;-72
2023/03/18 10:51:32;;;;;;;10.60;7.00;;;;;;;13.09;41.10;99080.59;108725;1250;1181542;-72
2023/03/18 10:54:14;;;;;;;10.30;7.00;;;;;;;13.03;40.88;99076.55;109591;1250;63691;-72
2023/03/18 10:56:41;;;;;;;9.60;7.00;;;;;;;13.01;40.54;99075.77;109624;1251;59779;-72
2023/03/18 10:59:15;;;;;;;9.50;7.30;;;;;;;13.00;40.45;99074.49;109638;1251;59820;-71
2023/03/18 11:01:45;;;;;;;8.90;7.00;;;;;;;13.03;40.28;99073.01;109666;1251;67479;-72
2023/03/18 11:04:17;;;;;;;8.90;7.00;;;;;;;13.02;39.57;99070.93;109446;1257;60030;-72
2023/03/18 11:06:52;;;;;;;9.50;6.70;;;;;;;12.99;39.57;99070.63;109498;1250;64134;-72
2023/03/18 11:09:21;;;;;;;10.90;6.70;;;;;;;13.01;39.37;99070.16;109590;1250;59778;-72
2023/03/18 11:11:55;;;;;;;9.30;6.70;;;;;;;13.09;39.41;99070.02;109573;1254;59843;-72
2023/03/18 11:14:28;;;;;;;9.60;7.20;;;;;;;13.21;39.42;99072.55;109587;1251;67472;-72
2023/03/18 11:16:59;;;;;;;9.10;6.80;;;;;;;13.26;39.06;99071.23;109611;1251;60791;-72
2023/03/18 11:19:28;;;;;;;9.10;7.70;;;;;;;13.28;38.80;99065.23;109594;1250;65433;-72
2023/03/18 11:22:03;;;;;;;9.80;7.40;;;;;;;13.33;38.68;99063.19;109616;1251;59747;-72
2023/03/18 11:24:38;;;;;;;9.50;7.40;;;;;;;13.48;38.79;99060.64;109614;1251;59655;-72